createdAt,value
2023-02-19T00:01:31.181Z,8.87
2023-02-19T00:04:00.373Z,8.79
2023-02-19T00:06:32.522Z,9.08
2023-02-19T00:08:59.463Z,8.55
2023-02-19T00:11:28.883Z,8.32
2023-02-19T00:14:00.076Z,8.78
2023-02-19T00:16:40.392Z,8.36
2023-02-19T00:19:09.181Z,7.97
2023-02-19T00:21:35.614Z,8.63
2023-02-19T00:24:04.593Z,8.67
2023-02-19T00:26:31.654Z,9.05
2023-02-19T00:28:58.590Z,8.52
2023-02-19T00:31:28.395Z,8.84
2023-02-19T00:33:58.325Z,9.05
2023-02-19T00:36:37.488Z,9.13
2023-02-19T00:39:06.034Z,8.84
2023-02-19T00:41:32.866Z,8.55
2023-02-19T00:44:00.394Z,8.83
2023-02-19T00:46:29.281Z,8.38
2023-02-19T00:48:57.258Z,8.64
2023-02-19T00:51:26.945Z,8.69
2023-02-19T00:53:53.761Z,8.27
2023-02-19T00:56:23.642Z,8.45
2023-02-19T00:58:50.622Z,8.54
2023-02-19T01:01:17.855Z,8.48
2023-02-19T01:03:44.459Z,8.45
2023-02-19T01:06:13.356Z,8.68
2023-02-19T01:08:40.075Z,8.44
2023-02-19T01:11:09.079Z,8.60
2023-02-19T01:13:35.998Z,8.38
2023-02-19T01:16:08.047Z,8.30
2023-02-19T01:18:35.453Z,7.87
2023-02-19T01:21:23.814Z,8.45
2023-02-19T01:23:51.757Z,8.48
2023-02-19T01:26:20.965Z,8.53
2023-02-19T01:28:48.275Z,8.58
2023-02-19T01:31:18.199Z,8.15
2023-02-19T01:33:50.697Z,8.26
2023-02-19T01:36:17.340Z,7.92
2023-02-19T01:38:44.313Z,8.23
2023-02-19T01:41:24.526Z,8.23
2023-02-19T01:44:18.121Z,8.02
2023-02-19T01:46:46.446Z,8.28
2023-02-19T01:49:21.006Z,7.94
2023-02-19T01:52:12.957Z,7.98
2023-02-19T01:54:42.745Z,7.89
2023-02-19T01:57:15.800Z,7.46
2023-02-19T01:59:43.160Z,8.03
2023-02-19T02:02:09.800Z,7.79
2023-02-19T02:04:36.384Z,7.83
2023-02-19T02:07:26.242Z,7.62
2023-02-19T02:10:12.527Z,7.57
2023-02-19T02:12:38.940Z,8.05
2023-02-19T02:15:05.969Z,7.79
2023-02-19T02:17:39.643Z,7.69
2023-02-19T02:20:15.219Z,8.13
2023-02-19T02:22:59.664Z,7.95
2023-02-19T02:25:47.387Z,7.99
2023-02-19T02:28:48.080Z,7.82
2023-02-19T02:31:28.415Z,7.96
2023-02-19T02:34:19.092Z,7.91
2023-02-19T02:36:49.763Z,7.76
2023-02-19T02:39:21.783Z,7.70
2023-02-19T02:42:15.500Z,7.79
2023-02-19T02:45:03.210Z,7.78
2023-02-19T02:47:42.304Z,7.80
2023-02-19T02:50:20.349Z,7.44
2023-02-19T02:53:09.971Z,7.42
2023-02-19T02:55:40.813Z,7.60
2023-02-19T02:58:08.153Z,7.61
2023-02-19T03:00:56.959Z,7.51
2023-02-19T03:03:25.479Z,7.25
2023-02-19T03:05:56.479Z,7.45
2023-02-19T03:08:28.116Z,7.18
2023-02-19T03:11:28.007Z,7.54
2023-02-19T03:14:39.142Z,7.27
2023-02-19T03:17:39.528Z,7.48
2023-02-19T03:20:10.945Z,8.00
2023-02-19T03:22:38.796Z,7.40
2023-02-19T03:25:29.165Z,6.97
2023-02-19T03:27:59.775Z,6.93
2023-02-19T03:30:31.757Z,7.09
2023-02-19T03:33:02.283Z,7.32
2023-02-19T03:35:34.903Z,7.20
2023-02-19T03:38:20.135Z,7.67
2023-02-19T03:41:03.537Z,7.19
2023-02-19T03:43:39.173Z,7.89
2023-02-19T03:46:25.623Z,7.51
2023-02-19T03:48:58.764Z,7.01
2023-02-19T03:51:42.665Z,7.07
2023-02-19T03:54:23.447Z,7.10
2023-02-19T03:56:54.173Z,7.27
2023-02-19T03:59:43.476Z,7.54
2023-02-19T04:02:26.095Z,7.18
2023-02-19T04:05:18.307Z,7.27
2023-02-19T04:07:48.888Z,6.95
2023-02-19T04:10:17.734Z,6.82
2023-02-19T04:12:50.508Z,7.08
2023-02-19T04:15:22.131Z,6.41
2023-02-19T04:18:07.387Z,6.52
2023-02-19T04:20:41.004Z,6.54
2023-02-19T04:23:08.063Z,6.16
2023-02-19T04:25:38.197Z,6.53
2023-02-19T04:28:04.840Z,6.10
2023-02-19T04:30:31.531Z,6.54
2023-02-19T04:32:58.007Z,6.40
2023-02-19T04:35:24.384Z,6.45
2023-02-19T04:37:50.839Z,6.24
2023-02-19T04:40:17.320Z,6.23
2023-02-19T04:42:43.689Z,6.06
2023-02-19T04:45:10.132Z,6.08
2023-02-19T04:47:36.517Z,6.21
2023-02-19T04:50:03.221Z,6.20
2023-02-19T04:52:29.645Z,5.81
2023-02-19T04:54:56.043Z,6.28
2023-02-19T04:57:22.435Z,5.97
2023-02-19T04:59:48.821Z,6.00
2023-02-19T05:02:15.200Z,5.94
2023-02-19T05:04:41.693Z,6.00
2023-02-19T05:07:08.459Z,6.31
2023-02-19T05:09:34.874Z,6.18
2023-02-19T05:12:01.377Z,6.35
2023-02-19T05:14:27.749Z,6.38
2023-02-19T05:16:54.140Z,6.54
2023-02-19T05:19:20.668Z,6.27
2023-02-19T05:21:47.029Z,6.23
2023-02-19T05:24:13.409Z,6.46
2023-02-19T05:26:39.853Z,6.43
2023-02-19T05:29:06.340Z,6.12
2023-02-19T05:31:33.848Z,6.12
2023-02-19T05:34:00.487Z,6.46
2023-02-19T05:36:27.019Z,6.22
2023-02-19T05:38:55.306Z,6.33
2023-02-19T05:41:27.327Z,6.15
2023-02-19T05:43:54.964Z,6.12
2023-02-19T05:46:26.708Z,6.30
2023-02-19T05:48:53.760Z,6.56
2023-02-19T05:51:22.132Z,6.19
2023-02-19T05:53:49.145Z,5.94
2023-02-19T05:56:26.755Z,6.04
2023-02-19T05:58:54.652Z,6.48
2023-02-19T06:01:23.991Z,6.43
2023-02-19T06:03:50.440Z,6.53
2023-02-19T06:06:18.833Z,6.44
2023-02-19T06:08:45.910Z,6.49
2023-02-19T06:11:12.694Z,6.39
2023-02-19T06:13:39.301Z,6.31
2023-02-19T06:16:07.498Z,5.96
2023-02-19T06:18:34.229Z,6.26
2023-02-19T06:21:05.610Z,6.51
2023-02-19T06:23:32.158Z,6.18
2023-02-19T06:26:10.449Z,6.52
2023-02-19T06:28:37.983Z,6.55
2023-02-19T06:31:05.899Z,6.65
2023-02-19T06:33:33.489Z,6.52
2023-02-19T06:36:04.342Z,6.52
2023-02-19T06:38:31.431Z,6.48
2023-02-19T06:41:05.544Z,6.34
2023-02-19T06:43:33.277Z,6.70
2023-02-19T06:46:04.941Z,6.63
2023-02-19T06:48:32.626Z,6.43
2023-02-19T06:50:59.525Z,6.19
2023-02-19T06:53:26.125Z,6.66
2023-02-19T06:56:07.391Z,6.49
2023-02-19T06:58:34.470Z,6.93
2023-02-19T07:01:01.400Z,6.91
2023-02-19T07:03:27.931Z,6.70
2023-02-19T07:05:54.367Z,6.69
2023-02-19T07:08:21.021Z,6.57
2023-02-19T07:10:56.407Z,6.42
2023-02-19T07:13:24.193Z,6.79
2023-02-19T07:15:52.162Z,6.69
2023-02-19T07:18:18.893Z,6.22
2023-02-19T07:20:45.440Z,6.56
2023-02-19T07:23:11.819Z,6.76
2023-02-19T07:25:38.822Z,6.99
2023-02-19T07:28:06.165Z,6.57
2023-02-19T07:30:38.496Z,6.76
2023-02-19T07:33:04.942Z,6.64
2023-02-19T07:35:31.325Z,6.32
2023-02-19T07:37:57.742Z,6.59
2023-02-19T07:40:30.480Z,6.46
2023-02-19T07:42:59.451Z,6.65
2023-02-19T07:45:25.901Z,6.78
2023-02-19T07:47:54.421Z,6.82
2023-02-19T07:50:20.820Z,6.66
2023-02-19T07:52:50.300Z,6.52
2023-02-19T07:55:25.936Z,6.54
2023-02-19T07:57:53.322Z,6.46
2023-02-19T08:00:27.800Z,6.80
2023-02-19T08:03:00.095Z,6.91
2023-02-19T08:05:41.119Z,6.74
2023-02-19T08:08:10.477Z,6.55
2023-02-19T08:11:10.455Z,6.88
2023-02-19T08:13:38.227Z,6.64
2023-02-19T08:16:16.876Z,6.34
2023-02-19T08:18:54.059Z,6.62
2023-02-19T08:21:27.864Z,6.89
2023-02-19T08:24:06.558Z,6.82
2023-02-19T08:26:41.278Z,6.91
2023-02-19T08:29:07.810Z,6.81
2023-02-19T08:31:35.072Z,6.81
2023-02-19T08:34:01.596Z,6.70
2023-02-19T08:36:36.077Z,6.65
2023-02-19T08:39:02.538Z,7.06
2023-02-19T08:41:30.906Z,6.74
2023-02-19T08:43:57.283Z,6.89
2023-02-19T08:46:34.598Z,7.09
2023-02-19T08:49:16.425Z,7.00
2023-02-19T08:51:49.055Z,6.94
2023-02-19T08:54:22.536Z,7.24
2023-02-19T08:56:56.227Z,7.05
2023-02-19T08:59:23.738Z,7.43
2023-02-19T09:01:50.854Z,7.48
2023-02-19T09:04:17.301Z,7.78
2023-02-19T09:06:43.721Z,7.45
2023-02-19T09:09:11.169Z,7.50
2023-02-19T09:11:55.902Z,7.23
2023-02-19T09:14:33.779Z,6.90
2023-02-19T09:17:01.454Z,6.75
2023-02-19T09:19:28.857Z,7.19
2023-02-19T09:21:56.047Z,5.77
2023-02-19T09:24:22.942Z,7.56
2023-02-19T09:26:50.496Z,7.76
2023-02-19T09:29:16.902Z,7.62
2023-02-19T09:31:43.529Z,7.79
2023-02-19T09:34:11.690Z,7.95
2023-02-19T09:36:39.454Z,7.98
2023-02-19T09:39:07.750Z,7.53
2023-02-19T09:41:37.846Z,7.46
2023-02-19T09:44:09.754Z,7.64
2023-02-19T09:46:45.777Z,7.58
2023-02-19T09:49:19.715Z,7.59
2023-02-19T09:52:10.138Z,7.47
2023-02-19T09:54:37.988Z,7.82
2023-02-19T09:57:21.520Z,7.44
2023-02-19T09:59:51.645Z,7.69
2023-02-19T10:02:30.804Z,7.48
2023-02-19T10:04:58.001Z,7.54
2023-02-19T10:07:33.079Z,7.62
2023-02-19T10:10:25.670Z,7.16
2023-02-19T10:12:56.059Z,7.41
2023-02-19T10:15:30.239Z,7.35
2023-02-19T10:17:56.835Z,7.28
2023-02-19T10:20:27.802Z,7.28
2023-02-19T10:23:03.420Z,7.34
2023-02-19T10:25:31.726Z,7.52
2023-02-19T10:28:00.206Z,6.87
2023-02-19T10:30:35.498Z,7.50
2023-02-19T10:33:08.645Z,7.60
2023-02-19T10:35:37.904Z,7.49
2023-02-19T10:38:06.806Z,7.57
2023-02-19T10:40:33.848Z,7.67
2023-02-19T10:43:04.603Z,7.79
2023-02-19T10:45:45.209Z,7.80
2023-02-19T10:48:24.775Z,7.50
2023-02-19T10:50:58.144Z,7.42
2023-02-19T10:53:37.882Z,7.33
2023-02-19T10:56:12.799Z,7.14
2023-02-19T10:58:42.320Z,7.18
2023-02-19T11:01:27.811Z,7.19
2023-02-19T11:04:17.577Z,7.63
2023-02-19T11:06:46.646Z,8.23
2023-02-19T11:09:28.203Z,8.35
2023-02-19T11:11:56.222Z,8.86
2023-02-19T11:14:24.635Z,9.07
2023-02-19T11:16:57.513Z,8.91
2023-02-19T11:19:39.601Z,8.78
2023-02-19T11:22:30.511Z,8.79
2023-02-19T11:25:04.743Z,8.96
2023-02-19T11:27:32.078Z,8.93
2023-02-19T11:30:37.777Z,9.40
2023-02-19T11:33:17.410Z,9.03
2023-02-19T11:35:45.040Z,9.20
2023-02-19T11:38:13.829Z,9.18
2023-02-19T11:41:22.318Z,9.32
2023-02-19T11:44:03.592Z,9.07
2023-02-19T11:46:57.305Z,9.03
2023-02-19T11:49:54.533Z,9.04
2023-02-19T11:53:10.967Z,9.32
2023-02-19T11:56:21.729Z,8.80
2023-02-19T11:59:07.382Z,8.85
2023-02-19T12:01:47.067Z,9.05
2023-02-19T12:05:03.704Z,8.72
2023-02-19T12:08:14.253Z,8.91
2023-02-19T12:11:11.465Z,9.03
2023-02-19T12:14:03.845Z,8.86
2023-02-19T12:16:46.304Z,8.79
2023-02-19T12:19:34.778Z,9.07
2023-02-19T12:22:30.563Z,8.93
2023-02-19T12:24:59.987Z,8.90
2023-02-19T12:27:43.061Z,9.31
2023-02-19T12:30:12.783Z,9.40
